createdAt,value
2019-02-27T00:00:49.925Z,95.43
2019-02-27T00:01:50.426Z,95.75
2019-02-27T00:02:49.904Z,95.64
2019-02-27T00:03:49.894Z,95.75
2019-02-27T00:04:57.762Z,95.54
2019-02-27T00:05:49.875Z,95.43
2019-02-27T00:06:49.863Z,95.96
2019-02-27T00:07:53.933Z,95.50
2019-02-27T00:08:49.844Z,95.81
2019-02-27T00:09:49.832Z,95.81
2019-02-27T00:10:49.894Z,95.64
2019-02-27T00:11:49.814Z,95.71
2019-02-27T00:12:51.918Z,95.71
2019-02-27T00:13:49.794Z,95.71
2019-02-27T00:14:49.780Z,94.97
2019-02-27T00:15:49.764Z,94.76
2019-02-27T00:16:49.796Z,94.44
2019-02-27T00:17:51.357Z,94.76
2019-02-27T00:18:58.828Z,94.65
2019-02-27T00:19:49.727Z,93.80
2019-02-27T00:20:56.697Z,94.34
2019-02-27T00:21:49.705Z,93.80
2019-02-27T00:22:57.184Z,94.23
2019-02-27T00:23:49.685Z,94.27
2019-02-27T00:24:49.671Z,94.12
2019-02-27T00:25:49.659Z,94.38
2019-02-27T00:26:56.635Z,94.06
2019-02-27T00:27:49.969Z,93.96
2019-02-27T00:28:56.775Z,94.27
2019-02-27T00:29:49.614Z,94.10
2019-02-27T00:30:49.607Z,94.10
2019-02-27T00:31:49.596Z,94.21
2019-02-27T00:32:51.283Z,94.06
2019-02-27T00:33:49.580Z,94.80
2019-02-27T00:34:49.641Z,94.64
2019-02-27T00:35:49.555Z,94.70
2019-02-27T00:36:49.544Z,94.48
2019-02-27T00:37:51.755Z,94.59
2019-02-27T00:38:49.523Z,94.38
2019-02-27T00:39:49.514Z,94.70
2019-02-27T00:40:49.509Z,94.48
2019-02-27T00:41:49.499Z,95.50
2019-02-27T00:42:49.481Z,95.71
2019-02-27T00:43:49.473Z,95.24
2019-02-27T00:44:49.463Z,95.51
2019-02-27T00:45:49.491Z,94.46
2019-02-27T00:46:56.432Z,94.67
2019-02-27T00:47:52.792Z,94.63
2019-02-27T00:48:59.042Z,93.99
2019-02-27T00:49:49.408Z,93.79
2019-02-27T00:50:49.397Z,93.99
2019-02-27T00:51:49.428Z,94.04
2019-02-27T00:52:51.105Z,93.68
2019-02-27T00:53:49.373Z,94.21
2019-02-27T00:54:49.352Z,94.31
2019-02-27T00:55:49.346Z,93.99
2019-02-27T00:56:56.757Z,93.37
2019-02-27T00:57:51.837Z,92.84
2019-02-27T00:58:49.312Z,93.68
2019-02-27T00:59:49.302Z,93.26
2019-02-27T01:00:49.292Z,92.69
2019-02-27T01:01:49.282Z,92.90
2019-02-27T01:02:52.901Z,93.22
2019-02-27T01:03:49.294Z,93.11
2019-02-27T01:04:49.253Z,92.90
2019-02-27T01:05:49.241Z,92.44
2019-02-27T01:06:49.232Z,92.48
2019-02-27T01:07:56.532Z,92.65
2019-02-27T01:08:49.225Z,92.65
2019-02-27T01:09:49.245Z,92.69
2019-02-27T01:10:49.187Z,92.69
2019-02-27T01:11:51.875Z,92.58
2019-02-27T01:12:49.795Z,92.38
2019-02-27T01:13:49.155Z,92.58
2019-02-27T01:14:49.149Z,92.54
2019-02-27T01:15:49.178Z,92.76
2019-02-27T01:16:50.174Z,91.96
2019-02-27T01:17:49.116Z,92.48
2019-02-27T01:18:50.945Z,92.80
2019-02-27T01:19:49.109Z,92.80
2019-02-27T01:20:49.103Z,92.54
2019-02-27T01:21:49.123Z,92.65
2019-02-27T01:22:49.061Z,92.48
2019-02-27T01:23:49.075Z,92.12
2019-02-27T01:24:50.104Z,91.91
2019-02-27T01:25:49.033Z,91.81
2019-02-27T01:26:49.051Z,91.70
2019-02-27T01:27:49.048Z,91.42
2019-02-27T01:28:49.008Z,91.42
2019-02-27T01:29:51.184Z,91.70
2019-02-27T01:30:48.975Z,91.60
2019-02-27T01:31:48.971Z,91.28
2019-02-27T01:32:48.967Z,91.17
2019-02-27T01:33:49.031Z,91.28
2019-02-27T01:34:48.935Z,90.75
2019-02-27T01:35:51.351Z,91.22
2019-02-27T01:36:48.934Z,91.11
2019-02-27T01:37:48.910Z,91.11
2019-02-27T01:39:00.305Z,91.11
2019-02-27T01:39:55.866Z,91.05
2019-02-27T01:40:51.421Z,92.21
2019-02-27T01:41:48.861Z,91.78
2019-02-27T01:42:56.143Z,92.41
2019-02-27T01:43:48.837Z,91.89
2019-02-27T01:44:48.886Z,92.73
2019-02-27T01:45:55.809Z,92.73
2019-02-27T01:46:48.808Z,92.84
2019-02-27T01:47:48.799Z,92.73
2019-02-27T01:48:48.792Z,92.73
2019-02-27T01:49:49.166Z,92.41
2019-02-27T01:50:48.806Z,92.84
2019-02-27T01:51:55.746Z,93.22
2019-02-27T01:52:48.747Z,92.69
2019-02-27T01:53:48.735Z,92.48
2019-02-27T01:54:49.011Z,92.23
2019-02-27T01:55:48.709Z,91.74
2019-02-27T01:56:55.953Z,91.49
2019-02-27T01:57:48.709Z,91.07
2019-02-27T01:58:48.688Z,91.17
2019-02-27T01:59:50.466Z,91.28
2019-02-27T02:00:48.673Z,90.86
2019-02-27T02:01:48.671Z,90.69
2019-02-27T02:02:48.686Z,91.22
2019-02-27T02:03:48.661Z,91.07
2019-02-27T02:04:52.887Z,90.97
2019-02-27T02:05:49.639Z,91.49
2019-02-27T02:06:48.629Z,91.66
2019-02-27T02:07:48.595Z,91.03
2019-02-27T02:08:48.866Z,91.13
2019-02-27T02:09:48.586Z,91.13
2019-02-27T02:10:48.561Z,90.61
2019-02-27T02:11:48.550Z,91.45
2019-02-27T02:12:48.546Z,90.71
2019-02-27T02:13:48.902Z,90.82
2019-02-27T02:14:48.541Z,90.92
2019-02-27T02:15:48.544Z,90.82
2019-02-27T02:16:48.508Z,90.50
2019-02-27T02:17:48.497Z,90.82
2019-02-27T02:18:48.838Z,90.82
2019-02-27T02:19:48.841Z,91.03
2019-02-27T02:20:48.467Z,90.50
2019-02-27T02:21:48.533Z,91.03
2019-02-27T02:22:48.432Z,90.92
2019-02-27T02:23:48.525Z,90.99
2019-02-27T02:24:48.415Z,90.67
2019-02-27T02:25:48.409Z,90.56
2019-02-27T02:26:48.394Z,90.99
2019-02-27T02:27:58.954Z,90.67
2019-02-27T02:28:48.862Z,90.46
2019-02-27T02:29:48.357Z,90.11
2019-02-27T02:30:48.345Z,90.25
2019-02-27T02:31:48.336Z,89.94
2019-02-27T02:32:52.034Z,90.56
2019-02-27T02:33:48.355Z,90.56
2019-02-27T02:34:55.607Z,90.36
2019-02-27T02:35:50.687Z,90.36
2019-02-27T02:36:48.283Z,90.36
2019-02-27T02:37:48.271Z,90.46
2019-02-27T02:38:48.268Z,90.46
2019-02-27T02:39:54.160Z,90.36
2019-02-27T02:40:49.241Z,90.25
2019-02-27T02:41:48.395Z,90.04
2019-02-27T02:42:48.224Z,89.94
2019-02-27T02:43:55.202Z,90.46
2019-02-27T02:44:48.201Z,90.36
2019-02-27T02:45:55.535Z,90.36
2019-02-27T02:46:55.168Z,90.36
2019-02-27T02:47:48.259Z,90.36
2019-02-27T02:48:48.158Z,90.14
2019-02-27T02:49:55.144Z,90.46
2019-02-27T02:50:53.954Z,90.56
2019-02-27T02:51:49.172Z,90.67
2019-02-27T02:52:48.123Z,90.46
2019-02-27T02:53:49.013Z,90.21
2019-02-27T02:54:48.093Z,90.42
2019-02-27T02:55:49.233Z,90.31
2019-02-27T02:56:48.096Z,90.53
2019-02-27T02:57:48.079Z,90.53
2019-02-27T02:58:48.911Z,90.53
2019-02-27T02:59:48.049Z,90.11
2019-02-27T03:00:48.043Z,90.42
2019-02-27T03:01:49.172Z,90.21
2019-02-27T03:02:48.011Z,90.53
2019-02-27T03:03:48.028Z,90.84
2019-02-27T03:04:49.191Z,90.84
2019-02-27T03:05:47.992Z,90.59
2019-02-27T03:06:47.976Z,90.80
2019-02-27T03:07:48.026Z,91.01
2019-02-27T03:08:47.952Z,91.01
2019-02-27T03:09:47.932Z,90.80
2019-02-27T03:10:47.934Z,90.80
2019-02-27T03:11:54.228Z,90.91
2019-02-27T03:12:49.000Z,90.91
2019-02-27T03:13:47.901Z,90.91
2019-02-27T03:14:53.289Z,90.86
2019-02-27T03:15:48.869Z,91.33
2019-02-27T03:16:47.861Z,91.53
2019-02-27T03:17:53.543Z,91.18
2019-02-27T03:18:48.894Z,91.60
2019-02-27T03:19:47.831Z,91.91
2019-02-27T03:20:58.419Z,91.91
2019-02-27T03:21:47.804Z,92.12
2019-02-27T03:22:47.794Z,92.23
2019-02-27T03:23:52.086Z,92.12
2019-02-27T03:24:47.786Z,92.54
2019-02-27T03:25:47.772Z,92.65
2019-02-27T03:26:51.885Z,92.96
2019-02-27T03:27:48.750Z,92.86
2019-02-27T03:28:47.727Z,92.65
2019-02-27T03:29:51.961Z,92.65
2019-02-27T03:30:48.744Z,92.96
2019-02-27T03:31:57.480Z,92.86
2019-02-27T03:32:48.768Z,92.96
2019-02-27T03:33:47.681Z,93.28
2019-02-27T03:34:50.724Z,93.07
2019-02-27T03:35:47.653Z,92.92
2019-02-27T03:36:47.689Z,93.44
2019-02-27T03:37:48.575Z,93.28
2019-02-27T03:38:47.777Z,93.02
2019-02-27T03:39:47.614Z,92.92
2019-02-27T03:40:48.190Z,92.71
2019-02-27T03:41:47.595Z,93.55
2019-02-27T03:42:47.622Z,92.50
2019-02-27T03:43:47.575Z,93.19
2019-02-27T03:44:47.568Z,93.55
2019-02-27T03:45:47.559Z,93.66
2019-02-27T03:46:47.541Z,93.76
2019-02-27T03:47:51.668Z,93.51
2019-02-27T03:48:47.559Z,93.72
2019-02-27T03:49:47.516Z,93.66
2019-02-27T03:50:49.946Z,93.76
2019-02-27T03:52:00.445Z,93.66
2019-02-27T03:52:47.498Z,93.51
2019-02-27T03:53:47.473Z,93.76
2019-02-27T03:54:48.616Z,93.44
2019-02-27T03:55:47.462Z,93.82
2019-02-27T03:56:47.481Z,93.66
2019-02-27T03:57:47.452Z,93.72
2019-02-27T03:58:47.453Z,93.87
2019-02-27T03:59:47.407Z,94.14
2019-02-27T04:00:49.788Z,94.24
2019-02-27T04:01:48.382Z,94.24
2019-02-27T04:02:47.375Z,94.45
2019-02-27T04:03:47.359Z,94.35
2019-02-27T04:04:47.355Z,94.04
2019-02-27T04:05:47.340Z,94.24
2019-02-27T04:06:47.496Z,93.72
2019-02-27T04:07:47.319Z,94.24
2019-02-27T04:08:47.309Z,94.04
2019-02-27T04:09:47.297Z,94.14
2019-02-27T04:10:47.290Z,94.14
2019-02-27T04:11:47.271Z,94.04
2019-02-27T04:12:51.403Z,94.10
2019-02-27T04:13:48.256Z,94.20
2019-02-27T04:14:47.240Z,94.31
2019-02-27T04:15:47.232Z,93.78
2019-02-27T04:16:47.227Z,93.78
2019-02-27T04:17:51.824Z,94.51
2019-02-27T04:18:48.202Z,94.04
2019-02-27T04:19:47.187Z,94.31
2019-02-27T04:20:50.686Z,94.10
2019-02-27T04:21:47.174Z,94.20
2019-02-27T04:22:58.137Z,94.20
2019-02-27T04:23:48.966Z,93.78
2019-02-27T04:24:47.134Z,94.20
2019-02-27T04:25:47.131Z,93.72
2019-02-27T04:26:47.123Z,94.10
2019-02-27T04:27:47.107Z,94.51
2019-02-27T04:28:47.271Z,94.41
2019-02-27T04:29:47.087Z,94.10
2019-02-27T04:30:51.013Z,93.88
2019-02-27T04:31:47.064Z,94.51
2019-02-27T04:32:48.791Z,94.10
2019-02-27T04:33:47.053Z,94.10
2019-02-27T04:34:47.068Z,94.83
2019-02-27T04:35:47.020Z,93.99
2019-02-27T04:36:47.751Z,93.99
2019-02-27T04:37:46.998Z,94.41
2019-02-27T04:38:46.987Z,94.51
2019-02-27T04:39:46.976Z,94.47
2019-02-27T04:40:47.134Z,94.37
2019-02-27T04:41:46.962Z,94.47
2019-02-27T04:42:46.952Z,94.37
2019-02-27T04:43:46.934Z,94.79
2019-02-27T04:44:46.927Z,94.47
2019-02-27T04:45:47.591Z,94.16
2019-02-27T04:46:47.083Z,93.95
2019-02-27T04:47:46.897Z,94.26
2019-02-27T04:48:46.883Z,94.79
2019-02-27T04:49:46.871Z,94.79
2019-02-27T04:50:46.859Z,95.00
2019-02-27T04:51:48.014Z,94.37
2019-02-27T04:52:46.884Z,95.06
2019-02-27T04:53:57.037Z,95.00
2019-02-27T04:54:46.823Z,94.89
2019-02-27T04:55:48.016Z,94.37
2019-02-27T04:56:46.799Z,94.58
2019-02-27T04:57:46.791Z,94.68
2019-02-27T04:58:46.818Z,94.64
2019-02-27T04:59:46.766Z,94.74
2019-02-27T05:00:46.756Z,94.85
2019-02-27T05:01:46.751Z,94.85
2019-02-27T05:02:54.123Z,94.85
2019-02-27T05:03:46.726Z,94.74
2019-02-27T05:04:46.750Z,94.74
2019-02-27T05:05:46.704Z,94.54
2019-02-27T05:06:47.328Z,94.81
2019-02-27T05:07:46.685Z,94.70
2019-02-27T05:08:46.671Z,94.49
2019-02-27T05:09:54.179Z,94.74
2019-02-27T05:10:46.648Z,94.70
2019-02-27T05:11:48.274Z,94.70
2019-02-27T05:12:48.283Z,94.70
2019-02-27T05:13:46.621Z,94.38
2019-02-27T05:14:46.616Z,94.49
2019-02-27T05:15:46.643Z,94.38
2019-02-27T05:16:47.199Z,94.91
2019-02-27T05:17:46.609Z,94.81
2019-02-27T05:18:46.570Z,94.81
2019-02-27T05:19:46.575Z,94.91
2019-02-27T05:20:46.542Z,94.91
2019-02-27T05:21:53.703Z,95.01
2019-02-27T05:22:46.524Z,95.23
2019-02-27T05:23:46.510Z,94.91
2019-02-27T05:24:46.533Z,94.91
2019-02-27T05:25:46.505Z,94.81
2019-02-27T05:26:46.483Z,95.33
2019-02-27T05:27:46.519Z,94.91
2019-02-27T05:28:46.463Z,94.70
2019-02-27T05:29:46.452Z,94.81
2019-02-27T05:30:46.439Z,94.81
2019-02-27T05:31:46.453Z,94.49
2019-02-27T05:32:46.444Z,94.49
2019-02-27T05:33:46.452Z,95.12
2019-02-27T05:34:49.378Z,95.23
2019-02-27T05:35:46.386Z,95.01
2019-02-27T05:36:46.380Z,95.01
2019-02-27T05:37:46.363Z,94.91
2019-02-27T05:38:46.359Z,94.81
2019-02-27T05:39:50.914Z,95.12
2019-02-27T05:40:47.334Z,95.01
2019-02-27T05:41:46.328Z,94.91
2019-02-27T05:42:46.311Z,94.91
2019-02-27T05:43:48.547Z,95.23
2019-02-27T05:44:46.333Z,95.12
2019-02-27T05:45:46.279Z,95.12
2019-02-27T05:46:46.274Z,94.81
2019-02-27T05:47:46.261Z,94.91
2019-02-27T05:48:46.248Z,94.60
2019-02-27T05:49:46.239Z,94.56
2019-02-27T05:50:46.254Z,94.87
2019-02-27T05:51:46.218Z,94.38
2019-02-27T05:52:56.614Z,94.56
2019-02-27T05:53:46.197Z,94.28
2019-02-27T05:54:46.183Z,94.97
2019-02-27T05:55:46.173Z,94.60
2019-02-27T05:56:47.186Z,94.70
2019-02-27T05:57:46.156Z,94.45
2019-02-27T05:58:46.149Z,94.45
2019-02-27T05:59:46.131Z,94.34
2019-02-27T06:00:46.123Z,94.87
2019-02-27T06:01:46.109Z,94.03
2019-02-27T06:02:46.135Z,93.67
2019-02-27T06:03:46.093Z,93.61
2019-02-27T06:04:46.078Z,93.99
2019-02-27T06:05:49.553Z,93.99
2019-02-27T06:06:46.061Z,93.99
2019-02-27T06:07:46.053Z,93.46
2019-02-27T06:08:46.072Z,93.78
2019-02-27T06:09:46.044Z,93.99
2019-02-27T06:10:46.016Z,93.36
2019-02-27T06:11:46.009Z,93.21
2019-02-27T06:12:45.997Z,93.32
2019-02-27T06:13:47.539Z,93.21
2019-02-27T06:14:45.987Z,93.57
2019-02-27T06:15:45.965Z,93.01
2019-02-27T06:16:45.948Z,92.79
2019-02-27T06:17:48.817Z,92.58
2019-02-27T06:18:45.929Z,92.48
2019-02-27T06:19:45.920Z,92.27
2019-02-27T06:20:45.917Z,92.58
2019-02-27T06:21:45.902Z,92.38
2019-02-27T06:22:45.891Z,92.16
2019-02-27T06:23:57.089Z,92.69
2019-02-27T06:24:46.372Z,92.38
2019-02-27T06:25:45.894Z,92.48
2019-02-27T06:26:45.842Z,92.02
2019-02-27T06:27:45.829Z,91.71
2019-02-27T06:28:45.835Z,92.23
2019-02-27T06:29:45.811Z,91.60
2019-02-27T06:30:45.797Z,91.71
2019-02-27T06:31:45.984Z,91.03
2019-02-27T06:32:45.779Z,90.72
2019-02-27T06:33:45.876Z,90.93
2019-02-27T06:34:45.755Z,91.08
2019-02-27T06:35:45.746Z,90.93
2019-02-27T06:36:45.745Z,91.18
2019-02-27T06:37:50.404Z,91.08
2019-02-27T06:38:46.716Z,91.08
2019-02-27T06:39:45.703Z,91.71
2019-02-27T06:40:45.695Z,91.81
2019-02-27T06:41:47.423Z,91.66
2019-02-27T06:42:45.670Z,91.14
2019-02-27T06:43:45.708Z,90.83
2019-02-27T06:44:45.648Z,90.93
2019-02-27T06:45:46.629Z,90.72
2019-02-27T06:46:45.630Z,90.83
2019-02-27T06:47:45.619Z,90.83
2019-02-27T06:48:45.606Z,90.31
2019-02-27T06:49:45.610Z,90.37
2019-02-27T06:50:45.592Z,89.95
2019-02-27T06:51:45.587Z,90.20
2019-02-27T06:52:45.571Z,90.06
2019-02-27T06:53:46.081Z,90.09
2019-02-27T06:54:56.166Z,90.16
2019-02-27T06:55:45.549Z,90.16
2019-02-27T06:56:45.521Z,90.16
2019-02-27T06:57:45.514Z,90.16
2019-02-27T06:58:47.609Z,90.37
2019-02-27T06:59:45.531Z,90.16
2019-02-27T07:00:45.486Z,90.16
2019-02-27T07:01:47.484Z,89.95
2019-02-27T07:02:45.461Z,90.26
2019-02-27T07:03:45.448Z,90.26
2019-02-27T07:04:45.434Z,90.37
2019-02-27T07:05:48.021Z,90.16
2019-02-27T07:06:45.416Z,89.95
2019-02-27T07:07:45.415Z,89.95
2019-02-27T07:08:45.396Z,89.91
2019-02-27T07:09:45.841Z,89.49
2019-02-27T07:10:45.372Z,89.59
2019-02-27T07:11:47.213Z,89.70
2019-02-27T07:12:45.352Z,89.81
2019-02-27T07:13:45.348Z,90.12
2019-02-27T07:14:45.333Z,90.01
2019-02-27T07:15:48.269Z,89.59
2019-02-27T07:16:45.310Z,89.81
2019-02-27T07:17:45.345Z,89.07
2019-02-27T07:18:45.290Z,89.81
2019-02-27T07:19:47.393Z,89.18
2019-02-27T07:20:45.271Z,89.14
2019-02-27T07:21:45.258Z,88.97
2019-02-27T07:22:46.574Z,88.76
2019-02-27T07:23:45.274Z,89.03
2019-02-27T07:24:45.223Z,88.51
2019-02-27T07:25:55.614Z,88.41
2019-02-27T07:26:47.550Z,89.03
2019-02-27T07:27:45.198Z,88.72
2019-02-27T07:28:45.179Z,88.51
2019-02-27T07:29:45.222Z,88.20
2019-02-27T07:30:45.159Z,88.20
2019-02-27T07:31:45.144Z,88.30
2019-02-27T07:32:45.143Z,88.20
2019-02-27T07:33:45.138Z,88.30
2019-02-27T07:34:46.723Z,88.06
2019-02-27T07:35:45.141Z,88.16
2019-02-27T07:36:45.093Z,87.01
2019-02-27T07:37:48.018Z,87.32
2019-02-27T07:38:45.075Z,87.53
2019-02-27T07:39:45.063Z,87.43
2019-02-27T07:40:45.052Z,87.32
2019-02-27T07:41:45.056Z,87.22
2019-02-27T07:42:45.033Z,87.01
2019-02-27T07:43:45.021Z,87.07
2019-02-27T07:44:45.012Z,86.87
2019-02-27T07:45:45.384Z,85.89
2019-02-27T07:46:44.992Z,85.93
2019-02-27T07:47:45.011Z,85.82
2019-02-27T07:48:44.963Z,86.35
2019-02-27T07:49:44.957Z,85.47
2019-02-27T07:50:48.321Z,85.68
2019-02-27T07:51:44.928Z,85.16
2019-02-27T07:52:44.922Z,85.58
2019-02-27T07:53:44.950Z,84.43
2019-02-27T07:54:44.898Z,85.26
2019-02-27T07:55:44.887Z,85.16
2019-02-27T07:56:55.281Z,84.84
2019-02-27T07:57:44.871Z,85.05
2019-02-27T07:58:44.855Z,84.81
2019-02-27T07:59:44.886Z,84.60
2019-02-27T08:00:47.082Z,84.39
2019-02-27T08:01:45.820Z,84.39
2019-02-27T08:02:44.823Z,84.22
2019-02-27T08:03:45.725Z,84.60
2019-02-27T08:04:44.789Z,84.70
2019-02-27T08:05:44.818Z,83.76
2019-02-27T08:06:44.771Z,83.76
2019-02-27T08:07:48.788Z,83.66
2019-02-27T08:08:44.748Z,83.76
2019-02-27T08:09:44.738Z,83.52
2019-02-27T08:10:45.343Z,82.58
2019-02-27T08:11:47.227Z,82.65
2019-02-27T08:12:44.704Z,81.81
2019-02-27T08:13:44.701Z,81.81
2019-02-27T08:14:44.684Z,80.63
2019-02-27T08:15:44.670Z,79.83
2019-02-27T08:16:44.669Z,79.17
2019-02-27T08:17:44.749Z,77.92
2019-02-27T08:18:44.641Z,77.78
2019-02-27T08:19:45.372Z,77.61
2019-02-27T08:20:44.616Z,76.75
2019-02-27T08:21:44.614Z,77.26
2019-02-27T08:22:44.604Z,76.75
2019-02-27T08:23:44.630Z,76.64
2019-02-27T08:24:44.574Z,76.75
2019-02-27T08:25:44.564Z,76.23
2019-02-27T08:26:44.558Z,75.57
2019-02-27T08:27:57.112Z,74.91
2019-02-27T08:28:44.533Z,74.50
2019-02-27T08:29:44.561Z,74.84
2019-02-27T08:30:44.509Z,74.81
2019-02-27T08:31:44.506Z,73.84
2019-02-27T08:32:44.493Z,73.25
2019-02-27T08:33:44.483Z,73.11
2019-02-27T08:34:44.464Z,73.49
2019-02-27T08:35:44.491Z,72.53
2019-02-27T08:36:44.454Z,71.18
2019-02-27T08:37:44.434Z,71.15
2019-02-27T08:38:44.423Z,70.84
2019-02-27T08:39:44.409Z,69.98
2019-02-27T08:40:44.399Z,69.12
2019-02-27T08:41:44.436Z,68.80
2019-02-27T08:42:44.381Z,69.04
2019-02-27T08:43:44.364Z,69.22
2019-02-27T08:44:45.777Z,70.87
2019-02-27T08:45:44.349Z,71.73
2019-02-27T08:46:44.338Z,73.05
2019-02-27T08:47:44.500Z,73.36
2019-02-27T08:48:44.316Z,74.84
2019-02-27T08:49:44.298Z,75.19
2019-02-27T08:50:44.290Z,76.02
2019-02-27T08:51:44.277Z,76.57
2019-02-27T08:52:44.710Z,76.78
2019-02-27T08:53:44.265Z,76.57
2019-02-27T08:54:44.254Z,75.92
2019-02-27T08:55:44.236Z,76.33
2019-02-27T08:56:47.203Z,76.68
2019-02-27T08:57:44.225Z,76.57
2019-02-27T08:58:55.326Z,77.44
2019-02-27T08:59:44.194Z,77.61
2019-02-27T09:00:47.114Z,77.20
2019-02-27T09:01:44.169Z,76.12
2019-02-27T09:02:44.156Z,76.40
2019-02-27T09:03:44.154Z,75.46
2019-02-27T09:04:45.528Z,75.67
2019-02-27T09:05:44.122Z,74.63
2019-02-27T09:06:44.119Z,74.84
2019-02-27T09:07:44.107Z,75.50
2019-02-27T09:08:44.373Z,75.71
2019-02-27T09:09:44.083Z,74.95
2019-02-27T09:10:44.112Z,74.53
2019-02-27T09:11:44.063Z,75.50
2019-02-27T09:12:45.462Z,74.29
2019-02-27T09:13:44.042Z,74.22
2019-02-27T09:14:44.023Z,74.98
2019-02-27T09:15:44.023Z,76.33
2019-02-27T09:16:44.045Z,75.40
2019-02-27T09:17:43.993Z,75.71
2019-02-27T09:18:44.230Z,75.60
2019-02-27T09:19:45.541Z,75.71
2019-02-27T09:20:43.964Z,76.68
2019-02-27T09:21:43.953Z,76.89
2019-02-27T09:22:43.961Z,76.68
2019-02-27T09:23:43.931Z,77.61
2019-02-27T09:24:43.923Z,76.43
2019-02-27T09:25:43.914Z,74.95
2019-02-27T09:26:43.896Z,74.08
2019-02-27T09:27:43.883Z,73.18
2019-02-27T09:28:44.552Z,71.56
2019-02-27T09:29:54.767Z,69.56
2019-02-27T09:30:43.851Z,69.01
2019-02-27T09:31:50.686Z,69.77
2019-02-27T09:32:45.999Z,68.77
2019-02-27T09:33:43.815Z,68.53
2019-02-27T09:34:43.823Z,67.99
2019-02-27T09:35:43.800Z,63.92
2019-02-27T09:36:43.895Z,61.65
2019-02-27T09:37:43.780Z,62.92
2019-02-27T09:38:45.167Z,62.57
2019-02-27T09:39:43.772Z,62.53
2019-02-27T09:40:43.741Z,63.56
2019-02-27T09:41:46.907Z,62.55
2019-02-27T09:42:43.726Z,64.76
2019-02-27T09:43:43.713Z,64.31
2019-02-27T09:44:43.694Z,62.60
2019-02-27T09:45:46.191Z,64.34
2019-02-27T09:46:43.672Z,67.12
2019-02-27T09:47:43.661Z,67.77
2019-02-27T09:48:43.656Z,68.40
2019-02-27T09:49:43.640Z,68.12
2019-02-27T09:50:47.769Z,69.04
2019-02-27T09:51:43.661Z,68.94
2019-02-27T09:52:43.607Z,70.25
2019-02-27T09:53:43.605Z,71.84
2019-02-27T09:54:46.815Z,72.05
2019-02-27T09:55:43.573Z,72.05
2019-02-27T09:56:43.561Z,71.49
2019-02-27T09:57:43.595Z,71.49
2019-02-27T09:58:45.695Z,71.18
2019-02-27T09:59:43.533Z,71.63
2019-02-27T10:00:59.334Z,71.97
2019-02-27T10:01:44.511Z,73.15
2019-02-27T10:02:46.298Z,73.67
2019-02-27T10:03:43.507Z,73.67
2019-02-27T10:04:43.478Z,74.32
2019-02-27T10:05:43.469Z,74.84
2019-02-27T10:06:43.559Z,74.63
2019-02-27T10:07:43.454Z,73.77
2019-02-27T10:08:43.429Z,74.84
2019-02-27T10:09:43.463Z,74.77
2019-02-27T10:10:45.878Z,75.50
2019-02-27T10:11:43.401Z,75.71
2019-02-27T10:12:43.392Z,76.23
2019-02-27T10:13:43.375Z,75.92
2019-02-27T10:14:43.365Z,75.71
2019-02-27T10:15:43.371Z,76.02
2019-02-27T10:16:43.350Z,76.12
2019-02-27T10:17:43.705Z,75.40
2019-02-27T10:18:43.326Z,75.50
2019-02-27T10:19:43.313Z,76.12
2019-02-27T10:20:43.341Z,76.43
2019-02-27T10:21:44.581Z,76.33
2019-02-27T10:22:43.284Z,75.71
2019-02-27T10:23:50.251Z,75.40
2019-02-27T10:24:43.258Z,76.12
2019-02-27T10:25:44.106Z,74.67
2019-02-27T10:26:43.241Z,74.84
2019-02-27T10:27:43.221Z,74.40
2019-02-27T10:28:44.063Z,73.84
2019-02-27T10:29:47.759Z,73.67
2019-02-27T10:30:43.188Z,74.74
2019-02-27T10:31:43.218Z,74.50
2019-02-27T10:32:43.174Z,74.29
2019-02-27T10:33:43.655Z,74.74
2019-02-27T10:34:43.148Z,74.84
2019-02-27T10:35:43.142Z,76.33
2019-02-27T10:36:43.130Z,75.46
2019-02-27T10:37:43.425Z,75.92
2019-02-27T10:38:43.116Z,75.81
2019-02-27T10:39:43.097Z,76.09
2019-02-27T10:40:46.047Z,74.91
2019-02-27T10:41:44.819Z,74.60
2019-02-27T10:42:43.063Z,73.94
2019-02-27T10:43:43.089Z,73.32
2019-02-27T10:44:43.041Z,73.28
2019-02-27T10:45:43.028Z,72.53
2019-02-27T10:46:43.018Z,70.15
2019-02-27T10:47:43.012Z,68.80
2019-02-27T10:48:42.993Z,69.01
2019-02-27T10:49:43.027Z,68.26
2019-02-27T10:50:42.975Z,67.98
2019-02-27T10:51:43.758Z,68.29
2019-02-27T10:52:42.955Z,67.85
2019-02-27T10:53:42.948Z,67.25
2019-02-27T10:54:53.390Z,68.08
2019-02-27T10:55:42.956Z,67.88
2019-02-27T10:56:42.903Z,65.86
2019-02-27T10:57:42.897Z,65.79
2019-02-27T10:58:45.010Z,65.72
2019-02-27T10:59:42.871Z,66.99
2019-02-27T11:00:42.867Z,66.33
2019-02-27T11:01:42.889Z,63.40
2019-02-27T11:02:45.151Z,61.24
2019-02-27T11:03:42.841Z,62.60
2019-02-27T11:04:42.819Z,62.71
2019-02-27T11:05:42.810Z,61.77
2019-02-27T11:06:42.802Z,58.68
2019-02-27T11:07:42.833Z,58.98
2019-02-27T11:08:42.779Z,57.78
2019-02-27T11:09:42.765Z,56.21
2019-02-27T11:10:42.755Z,56.08
2019-02-27T11:11:42.741Z,54.82
2019-02-27T11:12:42.727Z,55.13
2019-02-27T11:13:42.740Z,54.10
2019-02-27T11:14:42.716Z,55.77
2019-02-27T11:15:44.558Z,57.01
2019-02-27T11:16:42.690Z,58.63
2019-02-27T11:17:42.679Z,58.98
2019-02-27T11:18:42.825Z,59.01
2019-02-27T11:19:42.665Z,59.35
2019-02-27T11:20:42.642Z,59.45
2019-02-27T11:21:42.656Z,59.19
2019-02-27T11:22:42.624Z,58.50
2019-02-27T11:23:42.614Z,59.09
2019-02-27T11:24:42.710Z,58.03
2019-02-27T11:25:56.659Z,58.37
2019-02-27T11:26:42.581Z,58.47
2019-02-27T11:27:42.572Z,57.18
2019-02-27T11:28:47.537Z,55.87
2019-02-27T11:29:43.563Z,53.79
2019-02-27T11:30:42.538Z,53.77
2019-02-27T11:31:45.583Z,53.38
2019-02-27T11:32:42.525Z,52.64
2019-02-27T11:33:42.501Z,52.92
2019-02-27T11:34:42.492Z,51.13
2019-02-27T11:35:42.503Z,50.42
2019-02-27T11:36:42.475Z,49.77
2019-02-27T11:37:44.395Z,49.88
2019-02-27T11:38:42.449Z,50.06
2019-02-27T11:39:42.441Z,49.67
2019-02-27T11:40:42.921Z,49.47
2019-02-27T11:41:42.461Z,50.97
2019-02-27T11:42:42.406Z,53.05
2019-02-27T11:43:42.908Z,50.90
2019-02-27T11:44:42.470Z,48.60
2019-02-27T11:45:42.377Z,50.67
2019-02-27T11:46:42.363Z,52.89
2019-02-27T11:47:47.673Z,53.64
2019-02-27T11:48:43.341Z,54.36
2019-02-27T11:49:42.325Z,55.23
2019-02-27T11:50:42.335Z,55.51
2019-02-27T11:51:42.309Z,53.69
2019-02-27T11:52:48.593Z,54.49
2019-02-27T11:53:43.319Z,55.59
2019-02-27T11:54:43.189Z,57.98
2019-02-27T11:55:42.266Z,58.09
2019-02-27T11:56:56.182Z,57.01
2019-02-27T11:57:43.307Z,55.85
2019-02-27T11:58:42.229Z,55.00
2019-02-27T11:59:46.529Z,54.43
2019-02-27T12:00:42.211Z,54.30
2019-02-27T12:01:42.201Z,54.97
2019-02-27T12:02:42.192Z,54.38
2019-02-27T12:03:45.743Z,55.43
2019-02-27T12:04:42.173Z,56.00
2019-02-27T12:05:42.199Z,58.89
2019-02-27T12:06:42.245Z,59.41
2019-02-27T12:07:42.162Z,59.61
2019-02-27T12:08:42.134Z,59.95
2019-02-27T12:09:42.115Z,60.67
2019-02-27T12:10:42.100Z,59.38
2019-02-27T12:11:42.100Z,59.58
2019-02-27T12:12:42.081Z,59.58
2019-02-27T12:13:42.069Z,58.53
2019-02-27T12:14:42.067Z,58.65
2019-02-27T12:15:43.588Z,59.84
2019-02-27T12:16:42.209Z,59.28
2019-02-27T12:17:42.025Z,59.35
2019-02-27T12:18:42.014Z,58.32
2019-02-27T12:19:44.481Z,58.97
2019-02-27T12:20:41.989Z,59.82
2019-02-27T12:21:41.980Z,58.76
2019-02-27T12:22:42.141Z,59.92
2019-02-27T12:23:44.220Z,58.97
2019-02-27T12:24:41.945Z,58.94
2019-02-27T12:25:41.934Z,58.65
2019-02-27T12:26:41.922Z,59.41
2019-02-27T12:27:53.468Z,59.61
2019-02-27T12:28:41.899Z,59.72
2019-02-27T12:29:41.926Z,60.05
2019-02-27T12:30:41.883Z,60.88
2019-02-27T12:31:41.875Z,60.75
2019-02-27T12:32:41.857Z,59.51
2019-02-27T12:33:41.854Z,60.16
2019-02-27T12:34:41.843Z,60.26
2019-02-27T12:35:44.149Z,59.72
2019-02-27T12:36:41.818Z,58.26
2019-02-27T12:37:41.819Z,56.98
2019-02-27T12:38:42.527Z,56.10
2019-02-27T12:39:43.494Z,57.88
2019-02-27T12:40:41.781Z,59.02
2019-02-27T12:41:41.933Z,60.36
2019-02-27T12:42:42.729Z,61.08
2019-02-27T12:43:41.745Z,60.67
2019-02-27T12:44:41.738Z,60.02
2019-02-27T12:45:41.768Z,59.64
2019-02-27T12:46:41.709Z,60.57
2019-02-27T12:47:41.736Z,61.01
2019-02-27T12:48:46.153Z,61.42
2019-02-27T12:49:41.785Z,61.32
2019-02-27T12:50:41.659Z,61.42
2019-02-27T12:51:41.660Z,61.87
2019-02-27T12:52:44.362Z,62.48